createdAt,value
2023-03-21T00:01:09.702Z,100090.50
2023-03-21T00:01:43.870Z,100099.03
2023-03-21T00:02:31.758Z,100102.31
2023-03-21T00:03:06.314Z,100110.28
2023-03-21T00:03:55.774Z,100105.88
2023-03-21T00:04:50.813Z,100117.69
2023-03-21T00:05:45.825Z,100106.59
2023-03-21T00:06:39.700Z,100105.41
2023-03-21T00:07:33.721Z,100112.81
2023-03-21T00:08:27.780Z,100094.75
2023-03-21T00:09:21.743Z,100082.50
2023-03-21T00:10:05.147Z,100092.91
2023-03-21T00:11:00.927Z,100086.06
2023-03-21T00:11:42.724Z,100094.78
2023-03-21T00:12:22.812Z,100085.25
2023-03-21T00:13:04.707Z,100078.00
2023-03-21T00:13:45.858Z,100102.91
2023-03-21T00:14:26.725Z,100081.97
2023-03-21T00:15:13.766Z,100095.94
2023-03-21T00:16:16.085Z,100092.91
2023-03-21T00:17:19.708Z,100101.44
2023-03-21T00:18:17.732Z,100095.03
2023-03-21T00:19:12.703Z,100107.28
2023-03-21T00:20:07.710Z,100089.19
2023-03-21T00:20:48.735Z,100094.88
2023-03-21T00:22:03.571Z,100093.44
2023-03-21T00:22:33.722Z,100101.03
2023-03-21T00:23:13.847Z,100080.66
2023-03-21T00:23:54.707Z,100106.88
2023-03-21T00:24:35.239Z,100095.75
2023-03-21T00:25:17.721Z,100100.03
2023-03-21T00:26:04.724Z,100075.56
2023-03-21T00:27:12.516Z,100100.06
2023-03-21T00:28:13.718Z,100088.66
2023-03-21T00:29:07.719Z,100082.78
2023-03-21T00:30:02.720Z,100103.03
2023-03-21T00:30:56.703Z,100091.78
2023-03-21T00:31:37.731Z,100084.09
2023-03-21T00:32:17.786Z,100097.91
2023-03-21T00:33:03.574Z,100081.28
2023-03-21T00:33:46.809Z,100086.97
2023-03-21T00:34:36.879Z,100088.25
2023-03-21T00:35:57.425Z,100078.25
2023-03-21T00:36:24.708Z,100074.44
2023-03-21T00:37:04.707Z,100098.06
2023-03-21T00:37:38.822Z,100092.75
2023-03-21T00:38:27.709Z,100098.06
2023-03-21T00:39:01.922Z,100088.66
2023-03-21T00:39:50.685Z,100094.97
2023-03-21T00:40:29.449Z,100094.06
2023-03-21T00:41:39.036Z,100099.66
2023-03-21T00:42:22.750Z,100077.03
2023-03-21T00:43:16.692Z,100106.50
2023-03-21T00:44:10.713Z,100104.09
2023-03-21T00:45:04.699Z,100099.47
2023-03-21T00:45:59.688Z,100096.34
2023-03-21T00:47:06.283Z,100083.53
2023-03-21T00:47:46.866Z,100096.22
2023-03-21T00:48:26.877Z,100079.97
2023-03-21T00:49:06.688Z,100080.84
2023-03-21T00:49:47.795Z,100088.09
2023-03-21T00:50:28.728Z,100088.22
2023-03-21T00:51:08.777Z,100072.16
2023-03-21T00:51:50.320Z,100083.41
2023-03-21T00:52:40.615Z,100082.81
2023-03-21T00:53:22.761Z,100073.72
2023-03-21T00:54:05.693Z,100066.16
2023-03-21T00:54:46.698Z,100079.25
2023-03-21T00:55:26.835Z,100074.84
2023-03-21T00:56:07.685Z,100070.00
2023-03-21T00:56:47.865Z,100070.28
2023-03-21T00:57:38.695Z,100071.88
2023-03-21T00:58:19.790Z,100077.28
2023-03-21T00:58:59.696Z,100061.19
2023-03-21T00:59:39.771Z,100067.03
2023-03-21T01:00:22.692Z,100091.50
2023-03-21T01:01:04.427Z,100088.66
2023-03-21T01:01:45.707Z,100084.38
2023-03-21T01:02:26.929Z,100063.06
2023-03-21T01:03:23.744Z,100083.13
2023-03-21T01:04:17.689Z,100087.09
2023-03-21T01:05:11.700Z,100055.63
2023-03-21T01:06:13.661Z,100079.97
2023-03-21T01:07:08.723Z,100079.69
2023-03-21T01:08:06.017Z,100053.06
2023-03-21T01:09:04.687Z,100058.19
2023-03-21T01:09:45.690Z,100066.44
2023-03-21T01:10:26.436Z,100067.72
2023-03-21T01:11:14.671Z,100064.75
2023-03-21T01:11:56.790Z,100057.75
2023-03-21T01:12:36.669Z,100058.91
2023-03-21T01:13:18.774Z,100073.13
2023-03-21T01:14:14.595Z,100070.56
2023-03-21T01:15:00.697Z,100043.97
2023-03-21T01:15:34.969Z,100058.19
2023-03-21T01:16:21.661Z,100054.50
2023-03-21T01:16:57.777Z,100053.63
2023-03-21T01:17:44.655Z,100061.34
2023-03-21T01:18:20.055Z,100072.72
2023-03-21T01:19:15.010Z,100070.03
2023-03-21T01:19:55.744Z,100053.63
2023-03-21T01:20:36.671Z,100049.38
2023-03-21T01:21:20.851Z,100042.38
2023-03-21T01:22:02.676Z,100065.03
2023-03-21T01:22:42.753Z,100061.31
2023-03-21T01:23:23.640Z,100052.22
2023-03-21T01:24:03.736Z,100065.31
2023-03-21T01:24:53.158Z,100053.78
2023-03-21T01:25:43.668Z,100053.63
2023-03-21T01:26:37.652Z,100058.50
2023-03-21T01:27:31.682Z,100069.72
2023-03-21T01:28:25.690Z,100075.00
2023-03-21T01:29:19.676Z,100076.97
2023-03-21T01:30:20.292Z,100055.63
2023-03-21T01:31:09.718Z,100068.16
2023-03-21T01:31:43.795Z,100073.41
2023-03-21T01:32:30.697Z,100046.38
2023-03-21T01:33:04.768Z,100061.75
2023-03-21T01:33:52.653Z,100058.75
2023-03-21T01:34:27.577Z,100055.06
2023-03-21T01:35:15.674Z,100069.44
2023-03-21T01:35:55.341Z,100068.44
2023-03-21T01:36:40.755Z,100052.19
2023-03-21T01:37:20.748Z,100069.88
2023-03-21T01:38:00.644Z,100059.59
2023-03-21T01:38:40.855Z,100068.13
2023-03-21T01:39:21.669Z,100062.88
2023-03-21T01:40:01.746Z,100060.91
2023-03-21T01:40:42.660Z,100064.16
2023-03-21T01:41:47.659Z,100063.06
2023-03-21T01:42:41.644Z,100051.50
2023-03-21T01:43:46.635Z,100080.69
2023-03-21T01:44:41.636Z,100076.41
2023-03-21T01:46:34.803Z,100071.88
2023-03-21T01:47:24.693Z,100062.63
2023-03-21T01:48:04.744Z,100073.56
2023-03-21T01:48:48.628Z,100056.94
2023-03-21T01:49:35.032Z,100069.59
2023-03-21T01:50:15.616Z,100035.53
2023-03-21T01:50:56.776Z,100066.44
2023-03-21T01:51:41.675Z,100070.72
2023-03-21T01:52:37.549Z,100065.28
2023-03-21T01:53:36.657Z,100062.03
2023-03-21T01:54:39.650Z,100061.47
2023-03-21T01:55:33.637Z,100048.22
2023-03-21T01:56:51.643Z,100071.88
2023-03-21T01:58:04.441Z,100062.31
2023-03-21T01:59:01.664Z,100072.69
2023-03-21T02:00:08.658Z,100067.31
2023-03-21T02:01:03.630Z,100049.06
2023-03-21T02:01:58.630Z,100053.63
2023-03-21T02:03:11.323Z,100055.06
2023-03-21T02:04:09.868Z,100065.31
2023-03-21T02:05:04.640Z,100057.91
2023-03-21T02:06:10.637Z,100064.03
2023-03-21T02:07:25.628Z,100070.16
2023-03-21T02:08:12.663Z,100058.34
2023-03-21T02:08:46.766Z,100050.34
2023-03-21T02:09:39.606Z,100071.31
2023-03-21T02:10:17.765Z,100062.44
2023-03-21T02:11:05.584Z,100064.47
2023-03-21T02:11:39.738Z,100039.81
2023-03-21T02:12:27.632Z,100069.28
2023-03-21T02:13:09.312Z,100058.47
2023-03-21T02:13:55.838Z,100042.69
2023-03-21T02:14:43.726Z,100055.78
2023-03-21T02:15:24.612Z,100036.28
2023-03-21T02:16:41.748Z,100071.59
2023-03-21T02:17:47.603Z,100067.63
2023-03-21T02:19:17.632Z,100073.75
2023-03-21T02:20:19.594Z,100075.00
2023-03-21T02:21:56.596Z,100070.72
2023-03-21T02:23:45.609Z,100032.84
2023-03-21T02:25:29.637Z,100064.19
2023-03-21T02:26:50.163Z,100058.06
2023-03-21T02:27:47.602Z,100049.50
2023-03-21T02:28:21.713Z,100051.91
2023-03-21T02:29:43.601Z,100051.94
2023-03-21T02:30:51.364Z,100063.88
2023-03-21T02:31:38.390Z,100061.59
2023-03-21T02:32:43.618Z,100060.22
2023-03-21T02:33:59.338Z,100059.63
2023-03-21T02:35:29.582Z,100068.59
2023-03-21T02:36:51.677Z,100058.19
2023-03-21T02:38:24.595Z,100060.06
2023-03-21T02:39:44.602Z,100033.72
2023-03-21T02:41:01.770Z,100067.59
2023-03-21T02:42:11.679Z,100063.03
2023-03-21T02:43:45.575Z,100068.16
2023-03-21T02:45:02.602Z,100051.91
2023-03-21T02:46:07.631Z,100042.22
2023-03-21T02:47:13.649Z,100050.66
2023-03-21T02:48:26.863Z,100072.56
2023-03-21T02:50:09.551Z,100072.56
2023-03-21T02:51:11.586Z,100062.19
2023-03-21T02:52:15.690Z,100061.75
2023-03-21T02:53:01.590Z,100050.78
2023-03-21T02:53:49.625Z,100059.06
2023-03-21T02:54:47.030Z,100061.47
2023-03-21T02:55:34.751Z,100059.75
2023-03-21T02:56:17.617Z,100060.47
2023-03-21T02:56:59.669Z,100066.72
2023-03-21T02:57:43.395Z,100038.25
2023-03-21T02:58:27.729Z,100063.75
2023-03-21T02:59:01.691Z,100069.59
2023-03-21T02:59:54.590Z,100042.81
2023-03-21T03:00:39.760Z,100068.00
2023-03-21T03:01:27.617Z,100059.63
2023-03-21T03:02:02.648Z,100063.19
2023-03-21T03:02:54.622Z,100065.88
2023-03-21T03:03:43.604Z,100069.44
2023-03-21T03:04:40.692Z,100055.50
2023-03-21T03:05:40.583Z,100047.94
2023-03-21T03:06:40.592Z,100077.25
2023-03-21T03:07:57.567Z,100076.72
2023-03-21T03:09:03.584Z,100072.44
2023-03-21T03:11:05.565Z,100074.97
2023-03-21T03:12:01.561Z,100071.88
2023-03-21T03:13:27.560Z,100076.38
2023-03-21T03:15:00.163Z,100079.47
2023-03-21T03:16:23.571Z,100042.13
2023-03-21T03:17:35.586Z,100077.63
2023-03-21T03:19:10.546Z,100062.25
2023-03-21T03:20:25.584Z,100077.50
2023-03-21T03:22:00.545Z,100071.13
2023-03-21T03:23:25.568Z,100076.34
2023-03-21T03:24:19.552Z,100080.38
2023-03-21T03:25:36.061Z,100067.25
2023-03-21T03:26:33.552Z,100063.00
2023-03-21T03:27:17.673Z,100066.97
2023-03-21T03:28:01.541Z,100070.38
2023-03-21T03:28:47.666Z,100047.34
2023-03-21T03:29:29.530Z,100075.81
2023-03-21T03:30:12.791Z,100059.44
2023-03-21T03:31:08.207Z,100072.56
2023-03-21T03:32:17.653Z,100074.97
2023-03-21T03:33:06.555Z,100072.97
2023-03-21T03:33:52.661Z,100070.69
2023-03-21T03:34:40.544Z,100066.16
2023-03-21T03:35:24.721Z,100070.44
2023-03-21T03:36:07.111Z,100068.16
2023-03-21T03:36:56.069Z,100063.75
2023-03-21T03:37:41.523Z,100061.59
2023-03-21T03:38:21.985Z,100070.00
2023-03-21T03:39:02.561Z,100059.31
2023-03-21T03:40:00.700Z,100061.16
2023-03-21T03:40:52.530Z,100067.16
2023-03-21T03:42:00.830Z,100078.13
2023-03-21T03:42:42.627Z,100065.28
2023-03-21T03:43:36.586Z,100082.22
2023-03-21T03:44:10.791Z,100053.31
2023-03-21T03:44:57.539Z,100067.25
2023-03-21T03:45:39.624Z,100068.38
2023-03-21T03:46:42.571Z,100069.81
2023-03-21T03:47:31.691Z,100065.25
2023-03-21T03:48:31.547Z,100072.38
2023-03-21T03:49:11.644Z,100074.63
2023-03-21T03:50:19.528Z,100051.31
2023-03-21T03:51:13.639Z,100075.81
2023-03-21T03:52:27.555Z,100078.91
2023-03-21T03:53:18.408Z,100068.09
2023-03-21T03:54:29.529Z,100069.53
2023-03-21T03:55:03.618Z,100072.38
2023-03-21T03:55:51.524Z,100082.06
2023-03-21T03:56:25.807Z,100081.19
2023-03-21T03:57:13.545Z,100065.22
2023-03-21T03:57:54.557Z,100051.81
2023-03-21T03:58:49.513Z,100061.69
2023-03-21T03:59:43.513Z,100078.31
2023-03-21T04:00:37.654Z,100039.84
2023-03-21T04:01:31.528Z,100080.16
2023-03-21T04:02:26.616Z,100073.50
2023-03-21T04:03:16.593Z,100059.50
2023-03-21T04:04:03.742Z,100068.19
2023-03-21T04:04:59.510Z,100075.75
2023-03-21T04:05:33.600Z,100086.28
2023-03-21T04:06:20.506Z,100064.44
2023-03-21T04:06:54.602Z,100079.41
2023-03-21T04:07:41.486Z,100087.91
2023-03-21T04:08:15.593Z,100055.19
2023-03-21T04:08:58.099Z,100064.88
2023-03-21T04:09:44.540Z,100082.28
2023-03-21T04:10:26.515Z,100085.09
2023-03-21T04:11:08.595Z,100070.84
2023-03-21T04:11:49.514Z,100078.41
2023-03-21T04:12:30.942Z,100083.66
2023-03-21T04:13:10.508Z,100065.16
2023-03-21T04:13:50.652Z,100078.09
2023-03-21T04:14:43.978Z,100074.00
2023-03-21T04:15:25.621Z,100068.13
2023-03-21T04:16:06.559Z,100078.16
2023-03-21T04:16:46.605Z,100070.91
2023-03-21T04:17:27.527Z,100075.44
2023-03-21T04:18:07.599Z,100074.25
2023-03-21T04:18:48.476Z,100069.75
2023-03-21T04:19:28.585Z,100058.63
2023-03-21T04:20:20.732Z,100073.16
2023-03-21T04:21:03.618Z,100042.09
2023-03-21T04:21:44.512Z,100089.19
2023-03-21T04:22:24.613Z,100066.66
2023-03-21T04:23:05.560Z,100093.00
2023-03-21T04:23:46.953Z,100096.41
2023-03-21T04:24:27.521Z,100082.19
2023-03-21T04:25:07.750Z,100084.59
2023-03-21T04:25:56.235Z,100085.59
2023-03-21T04:26:38.138Z,100091.31
2023-03-21T04:27:20.551Z,100092.34
2023-03-21T04:28:01.616Z,100091.84
2023-03-21T04:28:43.566Z,100088.47
2023-03-21T04:29:24.080Z,100090.00
2023-03-21T04:30:05.485Z,100089.00
2023-03-21T04:31:00.311Z,100088.59
2023-03-21T04:31:42.515Z,100082.59
2023-03-21T04:32:24.669Z,100100.72
2023-03-21T04:33:07.483Z,100085.59
2023-03-21T04:33:47.959Z,100072.50
2023-03-21T04:34:30.503Z,100094.41
2023-03-21T04:35:11.240Z,100078.50
2023-03-21T04:35:52.540Z,100081.81
2023-03-21T04:36:39.018Z,100085.94
2023-03-21T04:37:21.510Z,100077.28
2023-03-21T04:38:02.572Z,100090.84
2023-03-21T04:38:43.474Z,100095.97
2023-03-21T04:39:24.669Z,100072.59
2023-03-21T04:40:04.447Z,100086.16
2023-03-21T04:40:44.585Z,100088.97
2023-03-21T04:41:25.476Z,100080.81
2023-03-21T04:42:05.655Z,100087.91
2023-03-21T04:42:46.505Z,100089.91
2023-03-21T04:43:28.396Z,100087.03
2023-03-21T04:44:09.488Z,100089.91
2023-03-21T04:44:49.632Z,100080.81
2023-03-21T04:45:30.489Z,100101.06
2023-03-21T04:46:10.666Z,100091.09
2023-03-21T04:46:51.457Z,100069.56
2023-03-21T04:47:31.554Z,100085.94
2023-03-21T04:48:12.532Z,100097.56
2023-03-21T04:48:52.603Z,100102.81
2023-03-21T04:49:33.471Z,100111.69
2023-03-21T04:50:15.824Z,100086.81
2023-03-21T04:50:55.485Z,100095.59
2023-03-21T04:51:35.770Z,100103.06
2023-03-21T04:52:15.459Z,100100.72
2023-03-21T04:52:55.729Z,100081.66
2023-03-21T04:53:36.501Z,100087.16
2023-03-21T04:54:16.568Z,100105.44
2023-03-21T04:54:57.462Z,100105.97
2023-03-21T04:55:54.843Z,100111.25
2023-03-21T04:56:49.494Z,100084.19
2023-03-21T04:57:43.462Z,100106.28
2023-03-21T04:58:37.444Z,100087.91
2023-03-21T04:59:32.469Z,100106.97
2023-03-21T05:00:27.465Z,100093.91
2023-03-21T05:01:26.525Z,100112.97
2023-03-21T05:02:20.463Z,100092.00
2023-03-21T05:03:15.484Z,100093.31
2023-03-21T05:04:06.642Z,100114.03
2023-03-21T05:04:40.596Z,100096.91
2023-03-21T05:05:27.474Z,100093.59
2023-03-21T05:06:01.578Z,100107.88
2023-03-21T05:06:49.483Z,100096.31
2023-03-21T05:07:26.370Z,100095.31
2023-03-21T05:08:13.437Z,100098.16
2023-03-21T05:08:47.596Z,100108.13
2023-03-21T05:09:28.471Z,100106.41
2023-03-21T05:10:10.583Z,100112.69
2023-03-21T05:10:51.527Z,100108.28
2023-03-21T05:11:32.624Z,100116.66
2023-03-21T05:12:13.456Z,100115.66
2023-03-21T05:12:53.525Z,100110.81
2023-03-21T05:13:33.443Z,100093.00
2023-03-21T05:14:20.619Z,100107.66
2023-03-21T05:15:01.474Z,100106.97
2023-03-21T05:15:41.629Z,100106.22
2023-03-21T05:16:22.521Z,100122.56
2023-03-21T05:17:05.434Z,100114.91
2023-03-21T05:17:49.410Z,100115.94
2023-03-21T05:18:30.504Z,100111.81
2023-03-21T05:19:11.419Z,100108.38
2023-03-21T05:19:52.833Z,100108.38
2023-03-21T05:20:33.497Z,100111.53
2023-03-21T05:21:13.580Z,100107.56
2023-03-21T05:21:54.432Z,100128.69
2023-03-21T05:22:40.724Z,100108.97
2023-03-21T05:23:24.447Z,100106.66
2023-03-21T05:24:04.572Z,100106.56
2023-03-21T05:24:48.452Z,100127.78
2023-03-21T05:25:41.478Z,100121.72
2023-03-21T05:26:41.570Z,100121.47
2023-03-21T05:27:42.477Z,100114.41
2023-03-21T05:28:38.447Z,100129.44
2023-03-21T05:29:33.456Z,100116.06
2023-03-21T05:30:30.454Z,100124.56
2023-03-21T05:31:11.530Z,100108.00
2023-03-21T05:31:52.539Z,100128.81
2023-03-21T05:32:33.444Z,100123.66
2023-03-21T05:33:13.536Z,100106.13
2023-03-21T05:33:55.453Z,100117.63
2023-03-21T05:34:35.654Z,100132.81
2023-03-21T05:35:16.421Z,100105.50
2023-03-21T05:35:59.590Z,100133.28
2023-03-21T05:36:42.458Z,100123.56
2023-03-21T05:37:22.508Z,100110.50
2023-03-21T05:38:03.417Z,100109.09
2023-03-21T05:38:46.492Z,100129.47
2023-03-21T05:39:27.470Z,100121.22
2023-03-21T05:40:07.657Z,100116.13
2023-03-21T05:40:47.488Z,100110.72
2023-03-21T05:41:27.523Z,100122.13
2023-03-21T05:42:08.446Z,100112.41
2023-03-21T05:42:49.557Z,100132.69
2023-03-21T05:43:29.412Z,100126.94
2023-03-21T05:44:09.506Z,100111.97
2023-03-21T05:44:49.399Z,100115.81
2023-03-21T05:45:29.513Z,100116.81
2023-03-21T05:46:10.507Z,100130.09
2023-03-21T05:46:50.523Z,100120.03
2023-03-21T05:47:31.470Z,100140.41
2023-03-21T05:48:11.609Z,100133.28
2023-03-21T05:48:52.609Z,100130.19
2023-03-21T05:49:32.638Z,100115.03
2023-03-21T05:50:14.401Z,100145.50
2023-03-21T05:50:54.498Z,100119.84
2023-03-21T05:51:34.406Z,100131.25
2023-03-21T05:52:15.489Z,100130.38
2023-03-21T05:52:55.441Z,100138.34
2023-03-21T05:53:35.516Z,100122.38
2023-03-21T05:54:16.430Z,100125.28
2023-03-21T05:54:56.548Z,100135.69
2023-03-21T05:55:37.603Z,100136.34
2023-03-21T05:56:18.512Z,100148.06
2023-03-21T05:56:59.396Z,100131.78
2023-03-21T05:57:40.928Z,100149.59
2023-03-21T05:58:22.445Z,100142.66
2023-03-21T05:59:02.509Z,100140.59
2023-03-21T05:59:43.438Z,100143.75
2023-03-21T06:00:24.625Z,100139.78
2023-03-21T06:01:05.457Z,100147.19
2023-03-21T06:01:45.553Z,100146.91
2023-03-21T06:02:26.435Z,100133.25
2023-03-21T06:03:06.873Z,100153.59
2023-03-21T06:03:47.446Z,100128.38
2023-03-21T06:04:27.571Z,100135.81
2023-03-21T06:05:08.415Z,100143.09
2023-03-21T06:05:48.518Z,100150.06
2023-03-21T06:06:29.439Z,100136.28
2023-03-21T06:07:10.603Z,100145.38
2023-03-21T06:07:51.389Z,100140.25
2023-03-21T06:08:32.196Z,100144.31
2023-03-21T06:09:13.533Z,100137.44
2023-03-21T06:09:53.488Z,100137.44
2023-03-21T06:10:34.388Z,100143.03
2023-03-21T06:11:39.487Z,100155.66
2023-03-21T06:12:20.382Z,100159.06
2023-03-21T06:13:00.557Z,100157.34
2023-03-21T06:13:40.397Z,100155.09
2023-03-21T06:14:28.441Z,100132.28
2023-03-21T06:15:23.414Z,100147.44
2023-03-21T06:16:17.428Z,100138.44
2023-03-21T06:17:11.369Z,100141.75
2023-03-21T06:18:05.493Z,100150.59
2023-03-21T06:18:59.454Z,100161.63
2023-03-21T06:19:46.424Z,100167.00
2023-03-21T06:20:20.564Z,100173.50
2023-03-21T06:21:07.393Z,100151.53
2023-03-21T06:21:41.470Z,100156.13
2023-03-21T06:22:28.415Z,100164.94
2023-03-21T06:23:02.549Z,100166.72
2023-03-21T06:23:49.376Z,100168.41
2023-03-21T06:24:23.504Z,100156.94
2023-03-21T06:25:12.563Z,100146.13
2023-03-21T06:25:46.495Z,100133.59
2023-03-21T06:26:33.405Z,100166.69
2023-03-21T06:27:07.527Z,100150.47
2023-03-21T06:27:54.396Z,100165.00
2023-03-21T06:28:28.548Z,100166.81
2023-03-21T06:29:15.433Z,100146.41
2023-03-21T06:29:49.484Z,100147.56
2023-03-21T06:30:36.405Z,100148.19
2023-03-21T06:31:10.482Z,100153.75
2023-03-21T06:31:57.400Z,100155.03
2023-03-21T06:32:31.540Z,100172.66
2023-03-21T06:33:19.372Z,100172.13
2023-03-21T06:33:53.603Z,100156.34
2023-03-21T06:34:40.372Z,100168.16
2023-03-21T06:35:14.495Z,100154.16
2023-03-21T06:36:04.382Z,100177.44
2023-03-21T06:36:38.461Z,100171.03
2023-03-21T06:37:26.348Z,100167.56
2023-03-21T06:38:00.448Z,100179.56
2023-03-21T06:38:48.366Z,100172.00
2023-03-21T06:39:22.483Z,100160.16
2023-03-21T06:40:12.366Z,100167.91
2023-03-21T06:40:46.931Z,100162.22
2023-03-21T06:41:28.377Z,100154.19
2023-03-21T06:42:09.471Z,100172.88
2023-03-21T06:42:50.389Z,100158.53
2023-03-21T06:43:31.264Z,100167.53
2023-03-21T06:44:12.344Z,100152.56
2023-03-21T06:44:52.425Z,100170.63
2023-03-21T06:45:33.393Z,100178.44
2023-03-21T06:46:13.565Z,100176.59
2023-03-21T06:46:54.501Z,100169.63
2023-03-21T06:47:34.465Z,100177.88
2023-03-21T06:48:15.340Z,100155.13
2023-03-21T06:48:55.603Z,100168.41
2023-03-21T06:49:36.358Z,100151.88
2023-03-21T06:50:17.447Z,100162.75
2023-03-21T06:50:59.341Z,100161.91
2023-03-21T06:51:39.443Z,100159.47
2023-03-21T06:52:20.384Z,100155.38
2023-03-21T06:53:00.593Z,100170.22
2023-03-21T06:53:40.392Z,100160.56
2023-03-21T06:54:20.428Z,100173.09
2023-03-21T06:55:01.340Z,100173.53
2023-03-21T06:55:41.440Z,100178.50
2023-03-21T06:56:22.342Z,100179.19
2023-03-21T06:57:02.421Z,100172.78
2023-03-21T06:57:42.358Z,100164.81
2023-03-21T06:58:22.497Z,100163.31
2023-03-21T06:59:03.366Z,100164.09
2023-03-21T06:59:43.491Z,100185.16
2023-03-21T07:00:52.372Z,100145.81
2023-03-21T07:01:46.324Z,100183.38
2023-03-21T07:02:56.415Z,100175.91
2023-03-21T07:03:37.887Z,100184.06
2023-03-21T07:04:18.317Z,100177.81
2023-03-21T07:04:58.549Z,100194.09
2023-03-21T07:05:38.537Z,100187.16
2023-03-21T07:06:19.459Z,100177.06
2023-03-21T07:06:59.356Z,100171.25
2023-03-21T07:07:40.579Z,100184.84
2023-03-21T07:08:20.408Z,100183.28
2023-03-21T07:09:03.095Z,100199.69
2023-03-21T07:09:43.351Z,100185.16
2023-03-21T07:10:24.502Z,100193.09
2023-03-21T07:11:04.336Z,100186.63
2023-03-21T07:12:06.452Z,100182.56
2023-03-21T07:12:47.319Z,100180.66
2023-03-21T07:13:34.411Z,100200.22
2023-03-21T07:14:08.125Z,100199.97
2023-03-21T07:14:55.356Z,100185.34
2023-03-21T07:15:29.135Z,100190.88
2023-03-21T07:16:16.344Z,100184.53
2023-03-21T07:16:50.450Z,100173.88
2023-03-21T07:17:37.337Z,100190.56
2023-03-21T07:18:11.153Z,100195.94
2023-03-21T07:18:58.357Z,100180.06
2023-03-21T07:19:32.126Z,100184.38
2023-03-21T07:20:20.326Z,100185.53
2023-03-21T07:20:54.202Z,100185.16
2023-03-21T07:21:41.321Z,100192.75
2023-03-21T07:22:15.115Z,100181.75
2023-03-21T07:23:02.343Z,100187.78
2023-03-21T07:23:38.159Z,100190.91
2023-03-21T07:24:19.338Z,100183.38
2023-03-21T07:25:04.411Z,100188.25
2023-03-21T07:25:39.660Z,100182.66
2023-03-21T07:26:22.315Z,100177.81
2023-03-21T07:26:56.610Z,100192.94
2023-03-21T07:27:30.429Z,100182.53
2023-03-21T07:28:15.318Z,100173.25
2023-03-21T07:28:49.480Z,100191.22
2023-03-21T07:29:29.333Z,100195.34
2023-03-21T07:30:11.460Z,100181.84
2023-03-21T07:31:04.333Z,100203.66
2023-03-21T07:31:39.880Z,100176.00
2023-03-21T07:32:27.373Z,100189.16
2023-03-21T07:33:01.470Z,100195.19
2023-03-21T07:33:48.331Z,100179.22
2023-03-21T07:34:23.411Z,100207.63
2023-03-21T07:35:03.313Z,100187.25
2023-03-21T07:35:43.474Z,100176.09
2023-03-21T07:36:24.331Z,100191.25
2023-03-21T07:37:06.997Z,100169.16
2023-03-21T07:37:48.320Z,100184.63
2023-03-21T07:38:30.638Z,100201.50
2023-03-21T07:39:11.306Z,100205.38
2023-03-21T07:39:51.902Z,100204.13
2023-03-21T07:40:32.334Z,100192.66
2023-03-21T07:41:13.388Z,100195.94
2023-03-21T07:41:53.338Z,100205.81
2023-03-21T07:42:33.390Z,100200.66
2023-03-21T07:43:13.291Z,100205.88
2023-03-21T07:43:53.411Z,100190.31
2023-03-21T07:44:34.306Z,100205.88
2023-03-21T07:45:21.210Z,100195.34
2023-03-21T07:46:05.384Z,100201.31
2023-03-21T07:46:45.685Z,100195.41
2023-03-21T07:47:25.297Z,100174.19
2023-03-21T07:48:05.398Z,100190.16
2023-03-21T07:48:46.318Z,100209.59
2023-03-21T07:49:26.611Z,100181.22
2023-03-21T07:50:07.318Z,100204.91
2023-03-21T07:50:48.406Z,100204.66
2023-03-21T07:51:28.328Z,100178.75
2023-03-21T07:52:08.483Z,100203.81
2023-03-21T07:52:49.299Z,100194.41
2023-03-21T07:53:29.395Z,100207.72
2023-03-21T07:54:10.285Z,100188.19
2023-03-21T07:54:50.500Z,100166.97
2023-03-21T07:55:31.310Z,100185.09
2023-03-21T07:56:12.455Z,100190.50
2023-03-21T07:56:53.346Z,100179.88
2023-03-21T07:57:33.407Z,100183.84
2023-03-21T07:58:13.277Z,100187.59
2023-03-21T07:58:53.412Z,100175.22
2023-03-21T07:59:34.272Z,100192.75
2023-03-21T08:00:22.808Z,100188.25
2023-03-21T08:01:05.290Z,100198.06
2023-03-21T08:01:45.380Z,100195.25
2023-03-21T08:02:26.498Z,100178.25
2023-03-21T08:03:07.480Z,100209.81
2023-03-21T08:03:47.321Z,100209.72
2023-03-21T08:04:28.011Z,100189.09
2023-03-21T08:05:10.295Z,100212.63
2023-03-21T08:05:50.701Z,100194.63
2023-03-21T08:06:35.263Z,100199.59
2023-03-21T08:07:15.368Z,100209.28
2023-03-21T08:07:56.294Z,100193.47
2023-03-21T08:08:36.396Z,100195.91
2023-03-21T08:09:17.270Z,100216.63
2023-03-21T08:09:57.409Z,100216.34
2023-03-21T08:10:41.267Z,100211.47
2023-03-21T08:11:22.115Z,100212.94
2023-03-21T08:12:02.327Z,100216.09
2023-03-21T08:12:42.379Z,100205.47
2023-03-21T08:13:23.297Z,100202.41
2023-03-21T08:14:07.369Z,100213.16
2023-03-21T08:14:48.252Z,100213.41
2023-03-21T08:15:29.355Z,100197.72
2023-03-21T08:16:10.305Z,100202.75
2023-03-21T08:16:50.477Z,100214.25
2023-03-21T08:17:31.272Z,100217.94
2023-03-21T08:18:11.488Z,100222.22
2023-03-21T08:18:52.374Z,100217.97
2023-03-21T08:19:32.387Z,100220.75
2023-03-21T08:20:15.282Z,100231.09
2023-03-21T08:21:03.374Z,100229.84
2023-03-21T08:21:45.278Z,100200.53
2023-03-21T08:22:25.494Z,100209.31
2023-03-21T08:23:05.275Z,100214.41
2023-03-21T08:23:45.372Z,100214.72
2023-03-21T08:24:26.279Z,100225.63
2023-03-21T08:25:06.379Z,100209.69
2023-03-21T08:25:47.259Z,100230.44
2023-03-21T08:26:27.634Z,100221.19
2023-03-21T08:27:08.234Z,100229.84
2023-03-21T08:27:49.390Z,100229.63
2023-03-21T08:28:30.266Z,100218.78
2023-03-21T08:29:10.909Z,100233.00
2023-03-21T08:29:52.310Z,100209.38
2023-03-21T08:30:34.413Z,100222.22
2023-03-21T08:31:17.277Z,100229.91
2023-03-21T08:31:58.128Z,100222.13
2023-03-21T08:32:39.247Z,100212.84
2023-03-21T08:33:19.350Z,100230.47
2023-03-21T08:34:01.247Z,100217.97
2023-03-21T08:34:42.673Z,100219.50
2023-03-21T08:35:25.260Z,100212.94
2023-03-21T08:36:07.449Z,100225.53
2023-03-21T08:36:48.270Z,100227.00
2023-03-21T08:37:28.482Z,100228.22
2023-03-21T08:38:10.269Z,100217.06
2023-03-21T08:38:54.196Z,100225.91
2023-03-21T08:39:35.271Z,100236.31
2023-03-21T08:40:22.364Z,100232.25
2023-03-21T08:41:03.273Z,100218.44
2023-03-21T08:41:44.504Z,100231.69
2023-03-21T08:42:25.261Z,100220.34
2023-03-21T08:43:05.445Z,100233.00
2023-03-21T08:43:46.241Z,100232.63
2023-03-21T08:44:26.918Z,100237.97
2023-03-21T08:45:07.234Z,100215.47
2023-03-21T08:45:47.337Z,100212.47
2023-03-21T08:46:28.301Z,100231.72
2023-03-21T08:47:08.357Z,100242.03
2023-03-21T08:47:49.286Z,100238.06
2023-03-21T08:48:30.383Z,100226.34
2023-03-21T08:49:11.251Z,100229.75
2023-03-21T08:49:51.354Z,100228.25
2023-03-21T08:50:36.236Z,100226.25
2023-03-21T08:51:16.350Z,100226.34
2023-03-21T08:51:57.263Z,100231.50
2023-03-21T08:52:37.537Z,100248.84